Time;durP1;ratioP1;P1;durP2;ratioP2;P2;SDS_P1;SDS_P2;PMS_P1;PMS_P2;Temp;Humidity;BMP_temperature;BMP_pressure;BME280_temperature;BME280_humidity;BME280_pressure;Samples;Min_cycle;Max_cycle;Signal;HPM_P1;HPM_P2
2023/12/10 00:00:19;;;;;;;32.20;7.72;;;;;;;;;;4848938;29;20053;-78
2023/12/10 00:02:45;;;;;;;28.52;7.00;;;;;;;;;;4860848;29;20398;-76
2023/12/10 00:05:11;;;;;;;20.40;5.28;;;;;;;;;;4862820;29;20087;-77
2023/12/10 00:07:37;;;;;;;26.05;5.47;;;;;;;;;;4854947;29;20056;-78
2023/12/10 00:10:03;;;;;;;20.70;6.63;;;;;;;;;;4844387;29;20065;-79
2023/12/10 00:12:29;;;;;;;22.70;6.03;;;;;;;;;;4851220;29;20049;-78
2023/12/10 00:14:55;;;;;;;26.27;6.72;;;;;;;;;;4851591;29;20107;-78
2023/12/10 00:17:25;;;;;;;30.70;5.82;;;;;;;;;;4847831;29;20070;-77
2023/12/10 00:19:51;;;;;;;29.60;6.40;;;;;;;;;;4868929;29;20040;-76
2023/12/10 00:22:18;;;;;;;26.98;6.45;;;;;;;;;;4847550;29;20136;-77
2023/12/10 00:24:44;;;;;;;30.33;6.75;;;;;;;;;;4858391;29;20064;-77
2023/12/10 00:27:10;;;;;;;23.33;6.07;;;;;;;;;;4871234;29;20129;-76
2023/12/10 00:29:36;;;;;;;28.42;7.05;;;;;;;;;;4856949;29;20052;-78
2023/12/10 00:32:02;;;;;;;32.05;7.93;;;;;;;;;;4858332;29;22829;-74
2023/12/10 00:34:28;;;;;;;27.65;7.47;;;;;;;;;;4851363;29;20073;-74
2023/12/10 00:36:54;;;;;;;27.73;5.95;;;;;;;;;;4852933;29;20053;-74
2023/12/10 00:39:20;;;;;;;30.13;6.68;;;;;;;;;;4850682;29;20095;-73
2023/12/10 00:41:46;;;;;;;35.15;6.75;;;;;;;;;;4854640;29;20048;-73
2023/12/10 00:44:12;;;;;;;21.55;5.50;;;;;;;;;;4846236;29;20050;-74
2023/12/10 00:46:38;;;;;;;28.30;6.63;;;;;;;;;;4848180;29;20516;-74
2023/12/10 00:49:04;;;;;;;27.85;6.18;;;;;;;;;;4848474;29;20057;-74
2023/12/10 00:51:31;;;;;;;39.97;7.28;;;;;;;;;;4852152;29;20060;-74
2023/12/10 00:53:57;;;;;;;47.22;8.40;;;;;;;;;;4856961;29;20049;-74
2023/12/10 00:56:23;;;;;;;36.92;7.18;;;;;;;;;;4865205;29;20052;-74
2023/12/10 00:58:49;;;;;;;25.95;5.70;;;;;;;;;;4865481;29;20057;-74
2023/12/10 01:01:15;;;;;;;37.40;6.72;;;;;;;;;;4848868;29;20052;-74
2023/12/10 01:03:41;;;;;;;29.67;6.53;;;;;;;;;;4873393;29;20055;-74
2023/12/10 01:06:09;;;;;;;37.78;7.45;;;;;;;;;;4853734;29;20102;-74
2023/12/10 01:08:35;;;;;;;33.50;7.18;;;;;;;;;;4853513;29;20053;-74
2023/12/10 01:11:02;;;;;;;43.28;8.07;;;;;;;;;;4848513;29;20080;-74
2023/12/10 01:13:28;;;;;;;32.28;5.63;;;;;;;;;;4849148;29;20053;-74
2023/12/10 01:15:55;;;;;;;34.25;7.20;;;;;;;;;;4850015;29;20085;-74
2023/12/10 01:18:24;;;;;;;39.67;8.15;;;;;;;;;;4870419;29;20056;-74
2023/12/10 01:20:51;;;;;;;35.38;6.35;;;;;;;;;;4867697;29;20052;-74
2023/12/10 01:23:18;;;;;;;35.30;6.90;;;;;;;;;;4864376;29;20048;-74
2023/12/10 01:25:44;;;;;;;35.67;7.07;;;;;;;;;;4870148;29;20140;-74
2023/12/10 01:28:12;;;;;;;31.77;5.80;;;;;;;;;;4877119;29;20157;-74
2023/12/10 01:30:38;;;;;;;31.63;6.55;;;;;;;;;;4876924;29;20052;-74
2023/12/10 01:33:04;;;;;;;32.65;6.70;;;;;;;;;;4876333;29;20072;-74
2023/12/10 01:35:30;;;;;;;34.30;6.57;;;;;;;;;;4874215;29;20045;-74
2023/12/10 01:37:57;;;;;;;35.50;5.85;;;;;;;;;;4868798;29;20047;-74
2023/12/10 01:40:23;;;;;;;35.05;6.70;;;;;;;;;;4868544;29;20131;-74
2023/12/10 01:42:49;;;;;;;31.77;5.90;;;;;;;;;;4869612;29;20187;-74
2023/12/10 01:45:18;;;;;;;31.00;6.80;;;;;;;;;;4866265;29;20060;-74
2023/12/10 01:47:46;;;;;;;37.10;7.43;;;;;;;;;;4873424;29;20132;-74
2023/12/10 01:50:12;;;;;;;33.17;6.47;;;;;;;;;;4873784;29;20080;-74
2023/12/10 01:52:43;;;;;;;36.97;6.93;;;;;;;;;;4878585;29;20129;-74
2023/12/10 01:55:09;;;;;;;33.42;6.47;;;;;;;;;;4877537;29;20063;-74
2023/12/10 01:57:35;;;;;;;32.63;6.80;;;;;;;;;;4863630;29;20053;-74
2023/12/10 02:00:05;;;;;;;31.17;6.50;;;;;;;;;;4879990;29;20537;-74
2023/12/10 02:02:32;;;;;;;28.52;7.57;;;;;;;;;;4875202;29;20067;-74
2023/12/10 02:05:04;;;;;;;23.67;6.10;;;;;;;;;;4868294;29;20049;-74
2023/12/10 02:07:30;;;;;;;37.92;6.40;;;;;;;;;;4878054;29;20363;-74
2023/12/10 02:09:56;;;;;;;34.70;7.90;;;;;;;;;;4878899;29;20940;-74
2023/12/10 02:12:22;;;;;;;31.42;6.82;;;;;;;;;;4877516;29;20445;-74
2023/12/10 02:14:49;;;;;;;35.45;6.63;;;;;;;;;;4871193;29;20410;-74
2023/12/10 02:17:16;;;;;;;25.30;5.55;;;;;;;;;;4865878;29;20049;-74
2023/12/10 02:19:42;;;;;;;36.67;8.02;;;;;;;;;;4867402;29;20040;-74
2023/12/10 02:22:14;;;;;;;44.70;8.00;;;;;;;;;;4869447;29;20084;-74
2023/12/10 02:24:45;;;;;;;29.40;5.93;;;;;;;;;;4880150;29;20112;-74
2023/12/10 02:27:11;;;;;;;33.63;6.45;;;;;;;;;;4863596;29;20071;-74
2023/12/10 02:29:37;;;;;;;26.40;6.38;;;;;;;;;;4868320;29;20052;-74
2023/12/10 02:32:03;;;;;;;24.63;5.63;;;;;;;;;;4881641;29;20515;-74
2023/12/10 02:34:29;;;;;;;34.38;7.13;;;;;;;;;;4866355;29;20130;-74
2023/12/10 02:36:55;;;;;;;31.05;7.25;;;;;;;;;;4881658;29;20204;-74
2023/12/10 02:39:21;;;;;;;27.48;6.18;;;;;;;;;;4872369;29;20056;-74
2023/12/10 02:41:47;;;;;;;35.10;7.28;;;;;;;;;;4870873;29;20061;-74
2023/12/10 02:44:13;;;;;;;27.55;6.72;;;;;;;;;;4886439;29;20136;-74
2023/12/10 02:46:43;;;;;;;23.88;5.03;;;;;;;;;;4880861;29;20454;-75
2023/12/10 02:49:09;;;;;;;25.50;5.47;;;;;;;;;;4877104;29;20032;-74
2023/12/10 02:51:36;;;;;;;18.40;5.00;;;;;;;;;;4877149;29;20051;-75
2023/12/10 02:54:02;;;;;;;27.98;5.90;;;;;;;;;;4872373;29;20052;-74
2023/12/10 02:56:28;;;;;;;27.45;6.28;;;;;;;;;;4884882;29;20120;-74
2023/12/10 02:58:54;;;;;;;32.78;5.72;;;;;;;;;;4881877;29;20044;-75
2023/12/10 03:01:20;;;;;;;31.08;5.75;;;;;;;;;;4889234;29;20064;-74
2023/12/10 03:03:46;;;;;;;34.92;6.43;;;;;;;;;;4878768;29;20044;-75
2023/12/10 03:06:12;;;;;;;21.92;5.07;;;;;;;;;;4884041;29;20569;-75
2023/12/10 03:08:38;;;;;;;25.70;5.63;;;;;;;;;;4875363;29;20048;-74
2023/12/10 03:11:04;;;;;;;43.85;6.03;;;;;;;;;;4884277;29;20052;-74
2023/12/10 03:13:30;;;;;;;28.13;5.70;;;;;;;;;;4880020;29;20089;-74
2023/12/10 03:15:56;;;;;;;29.52;6.43;;;;;;;;;;4863251;29;20045;-74
2023/12/10 03:18:22;;;;;;;29.67;6.15;;;;;;;;;;4871803;29;20173;-74
2023/12/10 03:20:48;;;;;;;33.78;6.28;;;;;;;;;;4863426;29;20096;-74
2023/12/10 03:23:14;;;;;;;29.45;6.13;;;;;;;;;;4871771;29;20076;-74
2023/12/10 03:25:40;;;;;;;24.95;5.57;;;;;;;;;;4877536;29;20049;-74
2023/12/10 03:28:06;;;;;;;41.20;6.38;;;;;;;;;;4879833;29;20083;-75
2023/12/10 03:30:35;;;;;;;37.22;6.85;;;;;;;;;;4871814;29;20521;-75
2023/12/10 03:33:01;;;;;;;32.58;6.65;;;;;;;;;;4857860;29;20127;-74
2023/12/10 03:35:28;;;;;;;34.88;6.88;;;;;;;;;;4867000;29;20570;-74
2023/12/10 03:37:54;;;;;;;22.77;6.35;;;;;;;;;;4876960;29;20135;-74
2023/12/10 03:40:20;;;;;;;13.40;4.30;;;;;;;;;;4890353;29;20052;-74
2023/12/10 03:42:46;;;;;;;25.45;6.72;;;;;;;;;;4866125;29;20319;-74
2023/12/10 03:45:12;;;;;;;25.25;5.45;;;;;;;;;;4867878;29;20048;-74
2023/12/10 03:47:40;;;;;;;30.95;6.07;;;;;;;;;;4890880;29;20049;-75
2023/12/10 03:50:07;;;;;;;36.10;7.43;;;;;;;;;;4868822;29;22145;-74
2023/12/10 03:52:33;;;;;;;28.02;6.55;;;;;;;;;;4867396;29;20057;-75
2023/12/10 03:54:59;;;;;;;23.17;6.35;;;;;;;;;;4880589;29;20041;-74
2023/12/10 03:57:25;;;;;;;27.55;6.38;;;;;;;;;;4878778;29;20131;-74
2023/12/10 03:59:51;;;;;;;39.22;7.45;;;;;;;;;;4893706;29;20052;-74
2023/12/10 04:02:17;;;;;;;22.45;6.20;;;;;;;;;;4869927;29;20136;-74
2023/12/10 04:04:43;;;;;;;23.27;5.63;;;;;;;;;;4871278;29;20063;-75
2023/12/10 04:07:10;;;;;;;41.10;7.20;;;;;;;;;;4865226;29;20094;-74
2023/12/10 04:09:39;;;;;;;26.23;6.35;;;;;;;;;;4867697;29;20049;-74
2023/12/10 04:12:05;;;;;;;22.35;6.90;;;;;;;;;;4879187;29;20048;-74
2023/12/10 04:14:31;;;;;;;13.68;4.75;;;;;;;;;;4881414;29;20048;-75
2023/12/10 04:16:57;;;;;;;18.65;5.20;;;;;;;;;;4878009;29;20052;-74
2023/12/10 04:19:23;;;;;;;39.03;7.07;;;;;;;;;;4875624;29;20109;-74
2023/12/10 04:21:49;;;;;;;29.05;5.47;;;;;;;;;;4880882;29;20053;-74
2023/12/10 04:24:16;;;;;;;30.83;5.93;;;;;;;;;;4874495;29;20053;-74
2023/12/10 04:26:42;;;;;;;24.30;5.55;;;;;;;;;;4868165;29;20409;-74
2023/12/10 04:29:08;;;;;;;24.60;5.45;;;;;;;;;;4874029;29;20050;-74
2023/12/10 04:31:36;;;;;;;28.42;6.72;;;;;;;;;;4889306;29;20051;-74
2023/12/10 04:34:05;;;;;;;34.35;6.13;;;;;;;;;;4869648;29;20377;-74
2023/12/10 04:36:31;;;;;;;24.83;5.72;;;;;;;;;;4882194;29;20049;-75
2023/12/10 04:38:57;;;;;;;25.02;5.57;;;;;;;;;;4879395;29;20052;-74
2023/12/10 04:41:23;;;;;;;21.95;5.50;;;;;;;;;;4891274;29;20099;-73
2023/12/10 04:43:49;;;;;;;27.17;6.68;;;;;;;;;;4885762;29;20106;-74
2023/12/10 04:46:18;;;;;;;26.20;6.85;;;;;;;;;;4869648;29;20105;-74
2023/12/10 04:48:44;;;;;;;22.95;5.32;;;;;;;;;;4873301;29;20048;-74
2023/12/10 04:51:12;;;;;;;25.42;6.32;;;;;;;;;;4870942;29;20072;-74
2023/12/10 04:53:38;;;;;;;32.58;6.43;;;;;;;;;;4880601;29;20045;-74
2023/12/10 04:56:04;;;;;;;28.15;5.88;;;;;;;;;;4876919;29;20055;-74
2023/12/10 04:58:30;;;;;;;14.93;5.20;;;;;;;;;;4870428;29;20146;-74
2023/12/10 05:00:56;;;;;;;18.45;4.28;;;;;;;;;;4887018;29;20040;-74
2023/12/10 05:03:22;;;;;;;24.58;5.35;;;;;;;;;;4873095;29;20048;-74
2023/12/10 05:05:48;;;;;;;28.92;7.40;;;;;;;;;;4873006;29;20052;-74
2023/12/10 05:08:14;;;;;;;29.70;5.82;;;;;;;;;;4874817;29;20080;-74
2023/12/10 05:10:40;;;;;;;25.20;5.43;;;;;;;;;;4874926;29;20055;-74
2023/12/10 05:13:06;;;;;;;16.85;5.05;;;;;;;;;;4875310;29;20083;-74
2023/12/10 05:15:33;;;;;;;27.50;6.07;;;;;;;;;;4889561;29;20048;-75
2023/12/10 05:18:06;;;;;;;31.27;6.80;;;;;;;;;;4874964;29;20059;-74
2023/12/10 05:20:32;;;;;;;26.85;6.53;;;;;;;;;;4891083;29;20125;-74
2023/12/10 05:23:00;;;;;;;29.55;6.43;;;;;;;;;;4877777;29;20179;-74
2023/12/10 05:25:30;;;;;;;24.75;5.55;;;;;;;;;;4884239;29;20580;-74
2023/12/10 05:27:56;;;;;;;22.05;5.68;;;;;;;;;;4871906;29;20136;-75
2023/12/10 05:30:22;;;;;;;31.60;7.28;;;;;;;;;;4889341;29;20048;-75
2023/12/10 05:32:51;;;;;;;33.17;5.72;;;;;;;;;;4865361;29;20049;-75
2023/12/10 05:35:17;;;;;;;30.48;7.60;;;;;;;;;;4864915;29;20052;-75
2023/12/10 05:37:43;;;;;;;20.27;4.90;;;;;;;;;;4884803;29;20049;-75
2023/12/10 05:40:09;;;;;;;25.35;5.88;;;;;;;;;;4885186;29;20122;-75
2023/12/10 05:42:35;;;;;;;24.17;5.55;;;;;;;;;;4867929;29;20049;-75
2023/12/10 05:45:02;;;;;;;21.50;4.47;;;;;;;;;;4864106;29;20048;-74
2023/12/10 05:47:28;;;;;;;29.10;6.95;;;;;;;;;;4885533;29;20051;-74
2023/12/10 05:49:55;;;;;;;23.60;5.85;;;;;;;;;;4880211;29;20045;-75
2023/12/10 05:52:21;;;;;;;22.23;5.53;;;;;;;;;;4894422;29;20064;-75
2023/12/10 05:54:47;;;;;;;24.25;5.38;;;;;;;;;;4891412;29;20602;-76
2023/12/10 05:57:13;;;;;;;14.50;4.47;;;;;;;;;;4878839;29;20056;-75
2023/12/10 05:59:39;;;;;;;35.60;6.97;;;;;;;;;;4863338;29;20048;-75
2023/12/10 06:02:05;;;;;;;24.45;5.97;;;;;;;;;;4864590;29;20082;-75
2023/12/10 06:04:31;;;;;;;22.15;4.68;;;;;;;;;;4883188;29;20065;-75
2023/12/10 06:06:57;;;;;;;30.67;6.35;;;;;;;;;;4865308;29;20067;-75
2023/12/10 06:09:23;;;;;;;36.55;6.35;;;;;;;;;;4865889;29;20098;-75
2023/12/10 06:11:49;;;;;;;24.55;5.95;;;;;;;;;;4869163;29;20059;-74
2023/12/10 06:14:16;;;;;;;31.75;6.38;;;;;;;;;;4888757;29;20048;-75
2023/12/10 06:16:42;;;;;;;25.92;5.57;;;;;;;;;;4880857;29;20056;-75
2023/12/10 06:19:08;;;;;;;31.02;6.38;;;;;;;;;;4871565;29;20053;-75
2023/12/10 06:21:34;;;;;;;24.73;6.22;;;;;;;;;;4889552;29;20103;-75
2023/12/10 06:24:00;;;;;;;31.35;6.53;;;;;;;;;;4878047;29;20049;-75
2023/12/10 06:26:32;;;;;;;28.75;4.80;;;;;;;;;;4885007;29;20048;-75
2023/12/10 06:28:58;;;;;;;27.33;5.68;;;;;;;;;;4890399;29;20496;-76
2023/12/10 06:31:24;;;;;;;25.20;6.40;;;;;;;;;;4876434;29;20131;-74
2023/12/10 06:33:50;;;;;;;22.95;6.20;;;;;;;;;;4862308;29;20056;-74
2023/12/10 06:36:16;;;;;;;30.30;6.38;;;;;;;;;;4872351;29;20082;-75
2023/12/10 06:38:42;;;;;;;34.97;6.75;;;;;;;;;;4889404;29;20093;-75
2023/12/10 06:41:11;;;;;;;22.45;5.32;;;;;;;;;;4872622;29;20053;-75
2023/12/10 06:43:37;;;;;;;22.85;5.00;;;;;;;;;;4877327;29;20144;-76
2023/12/10 06:46:06;;;;;;;26.38;5.18;;;;;;;;;;4868681;29;20055;-75
2023/12/10 06:48:33;;;;;;;17.75;4.47;;;;;;;;;;4862933;29;20554;-75
2023/12/10 06:51:00;;;;;;;22.95;5.07;;;;;;;;;;4873232;29;20101;-74
2023/12/10 06:53:26;;;;;;;28.75;6.28;;;;;;;;;;4871648;29;20063;-75
2023/12/10 06:55:53;;;;;;;17.92;5.18;;;;;;;;;;4895936;29;20040;-74
2023/12/10 06:58:19;;;;;;;20.95;6.05;;;;;;;;;;4865964;29;20215;-74
2023/12/10 07:00:45;;;;;;;33.67;7.20;;;;;;;;;;4861392;29;20060;-75
2023/12/10 07:03:11;;;;;;;36.28;7.50;;;;;;;;;;4871154;29;20124;-74
2023/12/10 07:05:37;;;;;;;26.45;5.78;;;;;;;;;;4861979;29;20057;-75
2023/12/10 07:08:04;;;;;;;27.52;5.55;;;;;;;;;;4877081;29;20044;-75
2023/12/10 07:10:30;;;;;;;28.55;7.00;;;;;;;;;;4871715;29;20047;-74
2023/12/10 07:12:56;;;;;;;27.90;5.53;;;;;;;;;;4871723;29;20049;-75
2023/12/10 07:15:22;;;;;;;20.33;5.13;;;;;;;;;;4866032;29;20063;-75
2023/12/10 07:17:48;;;;;;;20.38;4.93;;;;;;;;;;4859144;29;20052;-74
2023/12/10 07:20:14;;;;;;;18.98;3.72;;;;;;;;;;4873875;29;20127;-74
2023/12/10 07:22:41;;;;;;;24.52;4.82;;;;;;;;;;4874566;29;20064;-74
2023/12/10 07:25:07;;;;;;;28.52;5.88;;;;;;;;;;4870192;29;20056;-74
2023/12/10 07:27:36;;;;;;;23.92;5.63;;;;;;;;;;4886651;29;20539;-74
2023/12/10 07:30:02;;;;;;;24.52;5.53;;;;;;;;;;4875398;29;20041;-74
2023/12/10 07:32:28;;;;;;;23.88;5.57;;;;;;;;;;4868943;29;20044;-75
2023/12/10 07:34:54;;;;;;;20.70;4.82;;;;;;;;;;4869542;29;20486;-75
2023/12/10 07:37:20;;;;;;;22.40;5.03;;;;;;;;;;4879599;29;20407;-74
2023/12/10 07:39:46;;;;;;;30.35;5.93;;;;;;;;;;4870907;29;20096;-75
2023/12/10 07:42:12;;;;;;;31.92;6.10;;;;;;;;;;4868290;29;20041;-75
2023/12/10 07:44:38;;;;;;;30.17;6.45;;;;;;;;;;4865541;29;20144;-75
2023/12/10 07:47:04;;;;;;;15.13;4.72;;;;;;;;;;4880924;29;20053;-75
2023/12/10 07:49:34;;;;;;;26.85;6.00;;;;;;;;;;4869156;29;20052;-75
2023/12/10 07:52:00;;;;;;;23.35;4.63;;;;;;;;;;4883345;29;20057;-75
2023/12/10 07:54:26;;;;;;;22.58;5.82;;;;;;;;;;4866565;29;20048;-75
2023/12/10 07:56:52;;;;;;;24.35;4.78;;;;;;;;;;4863786;29;20053;-75
2023/12/10 07:59:19;;;;;;;24.40;4.93;;;;;;;;;;4871211;29;20072;-74
2023/12/10 08:01:45;;;;;;;20.95;4.90;;;;;;;;;;4864215;29;20109;-74
2023/12/10 08:04:11;;;;;;;23.60;5.20;;;;;;;;;;4864240;29;20112;-75
2023/12/10 08:06:37;;;;;;;31.98;6.10;;;;;;;;;;4877704;29;20063;-75
2023/12/10 08:09:06;;;;;;;27.73;5.72;;;;;;;;;;4871617;29;20056;-74
2023/12/10 08:11:32;;;;;;;22.15;5.07;;;;;;;;;;4872386;29;20061;-74
2023/12/10 08:13:58;;;;;;;27.02;4.95;;;;;;;;;;4873399;29;20049;-74
2023/12/10 08:16:24;;;;;;;22.27;5.18;;;;;;;;;;4889695;29;20049;-74
2023/12/10 08:18:50;;;;;;;30.35;4.95;;;;;;;;;;4876100;29;20062;-74
2023/12/10 08:21:17;;;;;;;19.77;4.63;;;;;;;;;;4875318;29;20191;-74
2023/12/10 08:23:43;;;;;;;28.73;5.72;;;;;;;;;;4874693;29;20044;-74
2023/12/10 08:26:09;;;;;;;22.00;5.88;;;;;;;;;;4872658;29;20059;-74
2023/12/10 08:28:41;;;;;;;25.73;6.03;;;;;;;;;;4877330;29;20059;-75
2023/12/10 08:31:07;;;;;;;23.20;5.32;;;;;;;;;;4868829;29;20053;-75
2023/12/10 08:33:33;;;;;;;29.20;4.82;;;;;;;;;;4887685;29;20040;-75
2023/12/10 08:36:00;;;;;;;20.42;5.15;;;;;;;;;;4870169;29;20044;-75
2023/12/10 08:38:26;;;;;;;22.50;4.78;;;;;;;;;;4872397;29;20177;-74
2023/12/10 08:40:52;;;;;;;18.10;4.90;;;;;;;;;;4884802;29;20131;-74
2023/12/10 08:43:20;;;;;;;18.92;4.55;;;;;;;;;;4880074;29;20189;-74
2023/12/10 08:45:46;;;;;;;25.17;5.28;;;;;;;;;;4872104;29;20474;-74
2023/12/10 08:48:12;;;;;;;19.58;5.10;;;;;;;;;;4888063;29;20073;-75
2023/12/10 08:50:38;;;;;;;21.05;4.78;;;;;;;;;;4867630;29;20076;-75
2023/12/10 08:53:04;;;;;;;27.00;5.60;;;;;;;;;;4881756;29;20650;-74
2023/12/10 08:55:30;;;;;;;17.23;4.18;;;;;;;;;;4873859;29;20402;-76
2023/12/10 08:57:56;;;;;;;16.25;4.05;;;;;;;;;;4874006;29;20377;-74
2023/12/10 09:00:22;;;;;;;15.07;5.55;;;;;;;;;;4894107;29;20033;-74
2023/12/10 09:02:48;;;;;;;21.15;4.63;;;;;;;;;;4882803;29;20379;-75
2023/12/10 09:05:14;;;;;;;18.00;4.13;;;;;;;;;;4863258;29;20060;-75
2023/12/10 09:07:40;;;;;;;24.35;5.88;;;;;;;;;;4867703;29;20425;-74
2023/12/10 09:10:07;;;;;;;15.43;4.75;;;;;;;;;;4873773;29;20103;-75
2023/12/10 09:12:33;;;;;;;19.35;4.47;;;;;;;;;;4874205;29;20061;-75
2023/12/10 09:14:59;;;;;;;27.42;6.40;;;;;;;;;;4868797;29;20048;-75
2023/12/10 09:17:28;;;;;;;20.25;4.93;;;;;;;;;;4872250;29;20044;-76
2023/12/10 09:19:54;;;;;;;32.00;7.18;;;;;;;;;;4879526;29;20451;-75
2023/12/10 09:22:20;;;;;;;24.60;5.93;;;;;;;;;;4866212;29;20413;-77
2023/12/10 09:24:46;;;;;;;24.63;6.70;;;;;;;;;;4868724;29;20053;-77
2023/12/10 09:27:12;;;;;;;27.63;6.90;;;;;;;;;;4877837;29;20077;-76
2023/12/10 09:29:39;;;;;;;32.90;8.20;;;;;;;;;;4893792;29;20451;-78
2023/12/10 09:32:06;;;;;;;35.72;7.03;;;;;;;;;;4879178;29;20056;-76
2023/12/10 09:34:33;;;;;;;28.58;6.93;;;;;;;;;;4866996;29;20052;-76
2023/12/10 09:36:59;;;;;;;31.50;6.72;;;;;;;;;;4880550;29;20060;-75
2023/12/10 09:39:25;;;;;;;28.30;6.28;;;;;;;;;;4868508;29;20143;-73
2023/12/10 09:41:51;;;;;;;26.33;5.47;;;;;;;;;;4865776;29;20110;-73
2023/12/10 09:44:17;;;;;;;31.38;6.28;;;;;;;;;;4870315;29;20186;-75
2023/12/10 09:46:43;;;;;;;23.55;6.65;;;;;;;;;;4872142;29;20059;-74
2023/12/10 09:49:09;;;;;;;33.22;7.15;;;;;;;;;;4874122;29;20389;-75
2023/12/10 09:51:35;;;;;;;33.63;7.43;;;;;;;;;;4867508;29;20052;-75
2023/12/10 09:54:01;;;;;;;32.97;9.63;;;;;;;;;;4870312;29;20044;-75
2023/12/10 09:56:27;;;;;;;20.27;5.28;;;;;;;;;;4886790;29;20109;-74
2023/12/10 09:58:53;;;;;;;25.77;6.20;;;;;;;;;;4878473;29;20049;-73
2023/12/10 10:01:19;;;;;;;27.90;7.10;;;;;;;;;;4865182;29;20132;-73
2023/12/10 10:03:46;;;;;;;23.98;6.05;;;;;;;;;;4865805;29;20486;-73
2023/12/10 10:06:12;;;;;;;34.90;7.32;;;;;;;;;;4870952;29;20057;-74
2023/12/10 10:08:38;;;;;;;36.58;8.15;;;;;;;;;;4876614;29;20781;-73
2023/12/10 10:11:04;;;;;;;31.75;7.13;;;;;;;;;;4880779;29;20047;-73
2023/12/10 10:13:30;;;;;;;39.13;8.65;;;;;;;;;;4873770;29;20056;-74
2023/12/10 10:15:56;;;;;;;40.72;8.70;;;;;;;;;;4873445;29;20140;-73
2023/12/10 10:18:22;;;;;;;40.28;7.63;;;;;;;;;;4888706;29;20174;-73
2023/12/10 10:20:49;;;;;;;40.35;8.73;;;;;;;;;;4877522;29;20812;-73
2023/12/10 10:23:15;;;;;;;31.05;6.43;;;;;;;;;;4875738;29;20059;-74
2023/12/10 10:25:41;;;;;;;32.35;8.20;;;;;;;;;;4876472;29;20052;-73
2023/12/10 10:28:09;;;;;;;32.40;7.47;;;;;;;;;;4881062;29;20052;-73
2023/12/10 10:30:35;;;;;;;36.08;7.68;;;;;;;;;;4873371;29;20056;-72
2023/12/10 10:33:01;;;;;;;27.85;6.55;;;;;;;;;;4862523;29;20439;-71
2023/12/10 10:35:27;;;;;;;29.35;6.30;;;;;;;;;;4879568;29;20520;-71
2023/12/10 10:37:55;;;;;;;34.08;7.63;;;;;;;;;;4877633;29;20101;-73
2023/12/10 10:40:21;;;;;;;39.42;8.82;;;;;;;;;;4869491;29;20064;-72
2023/12/10 10:42:47;;;;;;;33.97;6.30;;;;;;;;;;4873353;29;20052;-73
2023/12/10 10:45:16;;;;;;;30.27;7.18;;;;;;;;;;4868822;29;20071;-73
2023/12/10 10:47:43;;;;;;;30.05;7.20;;;;;;;;;;4881198;29;20403;-73
2023/12/10 10:50:09;;;;;;;39.13;7.60;;;;;;;;;;4879176;29;20081;-73
2023/12/10 10:52:35;;;;;;;29.70;6.93;;;;;;;;;;4885726;29;20105;-73
2023/12/10 10:55:02;;;;;;;35.28;7.25;;;;;;;;;;4859353;29;20059;-74
2023/12/10 10:57:34;;;;;;;32.17;7.45;;;;;;;;;;4885052;29;20060;-74
2023/12/10 11:00:20;;;;;;;27.77;6.10;;;;;;;;;;4869654;29;20051;-75
2023/12/10 11:02:47;;;;;;;29.02;6.15;;;;;;;;;;4882091;29;20497;-75
2023/12/10 11:05:13;;;;;;;28.40;7.15;;;;;;;;;;4884266;29;20064;-74
2023/12/10 11:07:41;;;;;;;33.60;7.43;;;;;;;;;;4871210;29;20612;-75
2023/12/10 11:10:07;;;;;;;23.25;6.75;;;;;;;;;;4867424;29;20117;-75
2023/12/10 11:12:39;;;;;;;33.08;8.15;;;;;;;;;;4886669;29;20070;-78
2023/12/10 11:15:26;;;;;;;34.60;8.55;;;;;;;;;;4869125;29;20041;-75
2023/12/10 11:17:58;;;;;;;33.08;7.25;;;;;;;;;;4890626;29;20059;-76
2023/12/10 11:20:30;;;;;;;31.55;7.50;;;;;;;;;;4878725;29;20182;-75
2023/12/10 11:22:59;;;;;;;37.13;8.20;;;;;;;;;;4874534;29;20059;-75
2023/12/10 11:25:28;;;;;;;39.10;7.50;;;;;;;;;;4875169;29;20532;-75
2023/12/10 11:27:54;;;;;;;36.45;8.13;;;;;;;;;;4864822;29;20063;-75
2023/12/10 11:30:20;;;;;;;40.10;7.78;;;;;;;;;;4882453;29;20103;-75
2023/12/10 11:32:46;;;;;;;39.63;7.72;;;;;;;;;;4872910;29;20077;-75
2023/12/10 11:35:14;;;;;;;34.97;7.53;;;;;;;;;;4881694;29;20193;-74
2023/12/10 11:37:41;;;;;;;29.63;7.63;;;;;;;;;;4864275;29;20044;-74
2023/12/10 11:40:08;;;;;;;25.23;6.35;;;;;;;;;;4875271;29;20095;-74
2023/12/10 11:42:34;;;;;;;40.08;9.68;;;;;;;;;;4879445;29;20049;-74
2023/12/10 11:45:00;;;;;;;23.42;5.78;;;;;;;;;;4873640;29;20137;-74
2023/12/10 11:47:26;;;;;;;27.25;5.45;;;;;;;;;;4863155;29;20068;-75
2023/12/10 11:49:55;;;;;;;32.05;6.72;;;;;;;;;;4875518;29;20052;-74
2023/12/10 11:52:21;;;;;;;31.02;9.48;;;;;;;;;;4880482;29;20498;-74
2023/12/10 11:54:47;;;;;;;30.30;6.85;;;;;;;;;;4859848;29;20150;-74
2023/12/10 11:57:13;;;;;;;29.63;6.47;;;;;;;;;;4865075;29;20056;-74
2023/12/10 11:59:49;;;;;;;28.20;6.57;;;;;;;;;;4863993;29;20402;-74
2023/12/10 12:02:15;;;;;;;29.70;6.78;;;;;;;;;;4867565;29;20613;-74
2023/12/10 12:04:42;;;;;;;29.70;6.97;;;;;;;;;;4871712;29;20053;-74
2023/12/10 12:07:22;;;;;;;26.60;6.97;;;;;;;;;;4876634;29;20398;-74
2023/12/10 12:09:48;;;;;;;27.73;7.32;;;;;;;;;;4866590;29;20108;-74
2023/12/10 12:12:14;;;;;;;34.55;7.00;;;;;;;;;;4866815;29;20071;-74
2023/12/10 12:14:40;;;;;;;28.65;6.43;;;;;;;;;;4867540;29;20053;-74
2023/12/10 12:17:06;;;;;;;28.98;6.40;;;;;;;;;;4884176;29;20053;-74
2023/12/10 12:19:35;;;;;;;22.58;5.80;;;;;;;;;;4867862;29;20053;-74
2023/12/10 12:22:04;;;;;;;28.65;6.22;;;;;;;;;;4866769;29;21557;-74
2023/12/10 12:24:30;;;;;;;30.08;6.43;;;;;;;;;;4868512;29;20041;-74
2023/12/10 12:26:56;;;;;;;30.15;6.30;;;;;;;;;;4882234;29;20138;-74
2023/12/10 12:29:22;;;;;;;31.17;8.88;;;;;;;;;;4875919;29;20152;-73
2023/12/10 12:31:52;;;;;;;26.90;5.45;;;;;;;;;;4868800;29;20767;-72
2023/12/10 12:34:18;;;;;;;25.63;6.55;;;;;;;;;;4883782;29;20060;-74
2023/12/10 12:36:45;;;;;;;24.98;5.93;;;;;;;;;;4866119;29;20045;-74
2023/12/10 12:39:11;;;;;;;23.58;5.57;;;;;;;;;;4878341;29;20058;-74
2023/12/10 12:41:37;;;;;;;31.00;6.50;;;;;;;;;;4885804;29;20760;-74
2023/12/10 12:44:03;;;;;;;23.67;6.32;;;;;;;;;;4881077;29;20433;-74
2023/12/10 12:46:29;;;;;;;32.40;6.53;;;;;;;;;;4867655;29;20044;-74
2023/12/10 12:48:55;;;;;;;26.25;5.80;;;;;;;;;;4863875;29;20051;-74
2023/12/10 12:51:21;;;;;;;26.08;6.60;;;;;;;;;;4874458;29;20079;-74
2023/12/10 12:53:48;;;;;;;31.40;7.07;;;;;;;;;;4887149;29;20135;-75
2023/12/10 12:56:14;;;;;;;36.90;7.65;;;;;;;;;;4880632;29;20072;-72
2023/12/10 12:58:40;;;;;;;27.83;6.80;;;;;;;;;;4871121;29;20462;-74
2023/12/10 13:01:06;;;;;;;32.08;7.15;;;;;;;;;;4873699;29;20521;-74
2023/12/10 13:03:32;;;;;;;25.45;6.40;;;;;;;;;;4871392;29;20068;-74
2023/12/10 13:05:58;;;;;;;30.90;6.18;;;;;;;;;;4878452;29;20045;-74
2023/12/10 13:08:24;;;;;;;26.80;6.80;;;;;;;;;;4867477;29;20067;-75
2023/12/10 13:10:50;;;;;;;19.27;5.60;;;;;;;;;;4875998;29;20041;-74
2023/12/10 13:13:16;;;;;;;29.75;6.45;;;;;;;;;;4867598;29;20452;-74
2023/12/10 13:15:42;;;;;;;23.85;5.78;;;;;;;;;;4887940;29;20135;-74
2023/12/10 13:18:08;;;;;;;23.15;5.95;;;;;;;;;;4864690;29;20056;-75
2023/12/10 13:20:34;;;;;;;24.38;4.95;;;;;;;;;;4872375;29;20045;-74
2023/12/10 13:23:00;;;;;;;29.67;6.25;;;;;;;;;;4869931;29;20373;-74
2023/12/10 13:25:26;;;;;;;25.65;5.90;;;;;;;;;;4868407;29;20087;-74
2023/12/10 13:27:52;;;;;;;30.33;6.75;;;;;;;;;;4876558;29;20053;-74
2023/12/10 13:30:18;;;;;;;20.63;5.57;;;;;;;;;;4869642;29;20092;-74
2023/12/10 13:32:44;;;;;;;26.13;6.15;;;;;;;;;;4872223;29;20113;-74
2023/12/10 13:35:11;;;;;;;23.30;5.65;;;;;;;;;;4878484;29;20049;-74
2023/12/10 13:37:37;;;;;;;30.92;7.18;;;;;;;;;;4868632;29;20504;-77
2023/12/10 13:40:23;;;;;;;29.30;5.82;;;;;;;;;;4872293;29;20466;-73
2023/12/10 13:42:49;;;;;;;23.65;6.05;;;;;;;;;;4870468;29;20060;-78
2023/12/10 13:45:15;;;;;;;24.25;6.07;;;;;;;;;;4861166;29;20052;-74
2023/12/10 13:47:41;;;;;;;41.25;9.55;;;;;;;;;;4882678;29;20401;-74
2023/12/10 13:50:07;;;;;;;31.92;8.88;;;;;;;;;;4869525;29;20405;-74
2023/12/10 13:52:36;;;;;;;21.92;4.90;;;;;;;;;;4876789;29;20040;-73
2023/12/10 13:55:03;;;;;;;16.45;4.20;;;;;;;;;;4864213;29;20048;-74
2023/12/10 13:57:33;;;;;;;33.45;6.82;;;;;;;;;;4878352;29;20800;-74
2023/12/10 13:59:59;;;;;;;20.30;5.90;;;;;;;;;;4870722;29;20056;-74
2023/12/10 14:02:31;;;;;;;26.75;6.38;;;;;;;;;;4867149;29;20095;-74
2023/12/10 14:04:57;;;;;;;20.02;4.63;;;;;;;;;;4867193;29;20119;-74
2023/12/10 14:07:23;;;;;;;14.15;4.20;;;;;;;;;;4871197;29;20084;-74
2023/12/10 14:09:49;;;;;;;20.80;5.05;;;;;;;;;;4866625;29;20056;-74
2023/12/10 14:12:15;;;;;;;22.80;4.93;;;;;;;;;;4874862;29;20064;-74
2023/12/10 14:14:42;;;;;;;31.80;6.18;;;;;;;;;;4864282;29;20049;-74
2023/12/10 14:17:11;;;;;;;21.75;5.68;;;;;;;;;;4866667;29;20052;-74
2023/12/10 14:19:37;;;;;;;23.33;6.60;;;;;;;;;;4868894;29;20045;-73
2023/12/10 14:22:03;;;;;;;21.98;5.80;;;;;;;;;;4871067;29;20143;-73
2023/12/10 14:24:29;;;;;;;30.27;6.28;;;;;;;;;;4886845;29;20053;-72
2023/12/10 14:26:55;;;;;;;25.80;5.78;;;;;;;;;;4901034;29;20604;-73